Time;durP1;ratioP1;P1;durP2;ratioP2;P2;SDS_P1;SDS_P2;PMS_P1;PMS_P2;Temp;Humidity;BMP_temperature;BMP_pressure;BME280_temperature;BME280_humidity;BME280_pressure;Samples;Min_cycle;Max_cycle;Signal;HPM_P1;HPM_P2
2022/09/17 00:02:17;;;;;;;18.85;3.83;;;;;;;8.83;100.00;101260.97;5095655;28;20032;-45
2022/09/17 00:04:42;;;;;;;22.50;4.18;;;;;;;8.83;100.00;101255.84;5096905;28;20467;-46
2022/09/17 00:07:08;;;;;;;22.83;3.80;;;;;;;8.85;100.00;101264.47;5096577;28;20024;-44
2022/09/17 00:09:34;;;;;;;15.63;3.30;;;;;;;8.89;100.00;101271.50;5096233;28;20016;-44
2022/09/17 00:11:59;;;;;;;19.55;3.85;;;;;;;8.93;100.00;101272.50;5096703;28;20089;-44
2022/09/17 00:14:24;;;;;;;18.13;4.03;;;;;;;8.95;100.00;101276.03;5096125;28;20024;-44
2022/09/17 00:16:50;;;;;;;19.30;4.00;;;;;;;8.99;100.00;101266.78;5095967;28;20055;-45
2022/09/17 00:19:20;;;;;;;17.70;3.13;;;;;;;9.03;100.00;101264.38;5096183;28;20031;-44
2022/09/17 00:21:46;;;;;;;15.25;3.20;;;;;;;9.06;100.00;101268.78;5096449;28;20048;-44
2022/09/17 00:24:13;;;;;;;20.20;3.42;;;;;;;9.11;100.00;101259.56;5095556;28;20459;-46
2022/09/17 00:26:38;;;;;;;20.85;3.97;;;;;;;9.13;100.00;101263.09;5096522;28;20049;-44
2022/09/17 00:29:05;;;;;;;16.83;3.22;;;;;;;9.15;100.00;101274.31;5095903;28;20103;-45
2022/09/17 00:31:33;;;;;;;19.27;3.50;;;;;;;9.19;100.00;101277.88;5095785;28;20028;-44
2022/09/17 00:34:00;;;;;;;21.17;3.38;;;;;;;9.22;100.00;101276.34;5096429;28;20024;-45
2022/09/17 00:36:25;;;;;;;14.75;2.78;;;;;;;9.25;100.00;101272.13;5095157;28;20411;-43
2022/09/17 00:38:53;;;;;;;13.27;2.97;;;;;;;9.19;100.00;101281.34;5096264;28;20035;-46
2022/09/17 00:41:19;;;;;;;;;;;;;;;9.26;100.00;101282.50;5096310;28;20107;-44
2022/09/17 00:43:50;;;;;;;12.32;2.72;;;;;;;9.23;100.00;101282.34;5095235;28;20018;-44
2022/09/17 00:46:31;;;;;;;16.30;2.95;;;;;;;9.25;100.00;101279.84;5095501;28;20507;-48
2022/09/17 00:49:00;;;;;;;15.00;2.38;;;;;;;9.27;100.00;101285.94;5096226;28;20099;-45
2022/09/17 00:51:36;;;;;;;12.32;2.70;;;;;;;9.25;100.00;101285.88;5095072;28;20020;-47
2022/09/17 00:54:05;;;;;;;9.32;2.45;;;;;;;9.27;100.00;101286.81;5095763;28;20031;-50
2022/09/17 00:56:32;;;;;;;14.93;2.78;;;;;;;9.26;100.00;101284.16;5095558;28;20020;-48
2022/09/17 00:59:00;;;;;;;17.63;2.72;;;;;;;9.18;100.00;101289.88;5095211;28;20034;-43
2022/09/17 01:01:25;;;;;;;;;;;;;;;9.28;100.00;101295.41;5096132;28;20444;-45
2022/09/17 01:03:51;;;;;;;14.75;2.88;;;;;;;9.20;100.00;101297.66;5095493;28;20398;-44
2022/09/17 01:06:42;;;;;;;17.15;3.25;;;;;;;9.20;100.00;101293.38;5094788;28;20028;-47
2022/09/17 01:09:38;;;;;;;16.17;3.30;;;;;;;9.18;100.00;101284.72;5095253;28;20036;-44
2022/09/17 01:12:31;;;;;;;13.05;2.95;;;;;;;9.19;100.00;101307.06;5094211;28;20106;-48
2022/09/17 01:15:18;;;;;;;13.82;3.10;;;;;;;9.17;100.00;101295.84;5095532;28;20040;-47
2022/09/17 01:17:58;;;;;;;19.10;3.58;;;;;;;9.19;100.00;101291.66;5095138;28;20024;-43
2022/09/17 01:20:42;;;;;;;17.08;3.35;;;;;;;9.25;100.00;101295.28;5094810;28;20093;-45
2022/09/17 01:23:31;;;;;;;13.70;3.13;;;;;;;9.23;100.00;101305.47;5094890;28;20038;-44
2022/09/17 01:26:05;;;;;;;17.33;3.20;;;;;;;9.25;100.00;101310.72;5097034;28;20027;-45
2022/09/17 01:28:45;;;;;;;20.50;4.20;;;;;;;9.27;100.00;101303.94;5095271;28;20024;-44
2022/09/17 01:31:17;;;;;;;18.27;3.30;;;;;;;9.26;100.00;101310.78;5094934;28;20016;-46
2022/09/17 01:34:11;;;;;;;13.70;3.00;;;;;;;9.31;100.00;101310.94;5094400;28;20060;-46
2022/09/17 01:36:40;;;;;;;20.08;3.25;;;;;;;9.29;100.00;101310.03;5068493;28;20094;-44
2022/09/17 01:39:18;;;;;;;16.67;3.22;;;;;;;9.27;100.00;101309.97;5094644;28;20031;-44
2022/09/17 01:42:01;;;;;;;20.85;3.83;;;;;;;9.26;100.00;101318.50;5094567;28;20032;-44
2022/09/17 01:45:00;;;;;;;15.82;3.13;;;;;;;9.26;100.00;101317.59;5094742;28;20040;-44
2022/09/17 01:47:29;;;;;;;16.75;3.20;;;;;;;9.23;100.00;101314.09;5093854;28;20387;-47
2022/09/17 01:50:01;;;;;;;16.10;2.80;;;;;;;9.23;100.00;101314.09;5094940;28;20024;-47
2022/09/17 01:52:30;;;;;;;18.17;3.47;;;;;;;9.22;100.00;101317.47;5094652;28;20028;-46
2022/09/17 01:55:00;;;;;;;18.17;3.13;;;;;;;9.18;100.00;101319.84;5093800;28;20486;-45
2022/09/17 01:57:31;;;;;;;15.82;2.67;;;;;;;9.13;100.00;101326.47;5094725;28;20036;-44
2022/09/17 02:00:16;;;;;;;18.35;3.42;;;;;;;9.06;100.00;101321.09;5094511;28;20032;-44
2022/09/17 02:02:51;;;;;;;18.80;3.17;;;;;;;9.04;100.00;101316.69;5094053;28;20073;-47
2022/09/17 02:05:40;;;;;;;16.20;3.30;;;;;;;9.02;100.00;101315.75;5094276;28;20490;-44
2022/09/17 02:08:13;;;;;;;17.13;3.30;;;;;;;9.02;100.00;101318.31;5093651;28;20032;-44
2022/09/17 02:10:44;;;;;;;16.33;3.30;;;;;;;9.01;100.00;101324.25;5094399;28;20483;-50
2022/09/17 02:13:19;;;;;;;16.63;3.13;;;;;;;9.05;100.00;101318.44;5094068;28;20107;-44
2022/09/17 02:15:50;;;;;;;16.77;3.00;;;;;;;9.08;100.00;101318.59;5093529;28;20096;-44
2022/09/17 02:18:42;;;;;;;18.15;3.00;;;;;;;9.11;100.00;101326.41;5094173;28;20103;-44
2022/09/17 02:21:14;;;;;;;14.68;3.05;;;;;;;9.12;100.00;101329.88;5093916;28;20028;-44
2022/09/17 02:24:02;;;;;;;17.92;2.90;;;;;;;9.14;100.00;101316.28;5092870;28;20107;-44
2022/09/17 02:26:28;;;;;;;15.80;2.80;;;;;;;9.16;100.00;101319.78;5094288;28;20032;-44
2022/09/17 02:28:57;;;;;;;18.65;3.10;;;;;;;9.16;100.00;101321.50;5093566;28;20095;-45
2022/09/17 02:31:23;;;;;;;16.63;3.38;;;;;;;9.13;100.00;101322.22;5093857;28;20054;-47
2022/09/17 02:33:55;;;;;;;15.32;3.13;;;;;;;9.07;100.00;101321.97;5093946;28;20441;-44
2022/09/17 02:36:23;;;;;;;20.92;3.42;;;;;;;9.09;100.00;101319.44;5092855;28;20036;-44
2022/09/17 02:38:57;;;;;;;17.45;2.95;;;;;;;9.08;100.00;101323.72;5093854;28;20103;-47
2022/09/17 02:41:29;;;;;;;18.27;3.20;;;;;;;9.07;100.00;101332.25;5093725;28;20036;-46
2022/09/17 02:44:02;;;;;;;16.73;3.17;;;;;;;9.02;100.00;101333.75;5093042;28;20073;-44
2022/09/17 02:47:00;;;;;;;13.45;3.13;;;;;;;9.04;100.00;101338.13;5093508;28;20489;-44
2022/09/17 02:49:43;;;;;;;14.15;2.90;;;;;;;9.03;100.00;101338.06;5059356;28;20467;-44
2022/09/17 02:52:26;;;;;;;17.33;2.85;;;;;;;9.02;100.00;101342.31;5093134;28;20028;-44
2022/09/17 02:55:06;;;;;;;15.85;2.95;;;;;;;9.00;100.00;101336.25;5093713;28;20028;-46
2022/09/17 02:58:03;;;;;;;16.17;2.75;;;;;;;9.04;100.00;101340.72;5092748;28;20020;-44
2022/09/17 03:00:28;;;;;;;17.20;3.38;;;;;;;9.05;100.00;101328.72;5093683;28;20039;-47
2022/09/17 03:02:58;;;;;;;16.42;2.63;;;;;;;9.07;100.00;101327.09;5093024;28;20032;-46
2022/09/17 03:05:26;;;;;;;17.75;2.80;;;;;;;9.08;100.00;101326.31;5092665;28;20528;-45
2022/09/17 03:07:53;;;;;;;;;;;;;;;9.13;100.00;101332.53;5093771;28;20024;-47
2022/09/17 03:10:18;;;;;;;18.95;2.95;;;;;;;9.05;100.00;101326.16;5093063;28;19916;-44
2022/09/17 03:12:44;;;;;;;18.50;2.83;;;;;;;9.01;100.00;101327.72;5092910;28;20382;-48
2022/09/17 03:15:09;;;;;;;16.17;2.70;;;;;;;8.94;100.00;101327.41;5093178;28;20027;-47
2022/09/17 03:17:35;;;;;;;15.57;2.65;;;;;;;8.93;100.00;101320.50;5093062;28;20363;-48
2022/09/17 03:20:00;;;;;;;19.00;3.17;;;;;;;8.83;100.00;101332.94;5092706;28;20497;-45
2022/09/17 03:22:25;;;;;;;16.13;2.92;;;;;;;8.76;100.00;101335.16;5093046;28;20419;-43
2022/09/17 03:24:51;;;;;;;15.45;3.10;;;;;;;8.71;100.00;101340.09;5093065;28;20028;-46
2022/09/17 03:27:16;;;;;;;16.35;2.63;;;;;;;8.57;100.00;101337.78;5095492;28;20348;-46
2022/09/17 03:29:42;;;;;;;14.52;3.05;;;;;;;8.56;100.00;101336.03;5092521;28;20032;-47
2022/09/17 03:32:07;;;;;;;18.13;2.83;;;;;;;8.55;100.00;101338.53;5092150;28;20463;-46
2022/09/17 03:34:33;;;;;;;17.95;2.92;;;;;;;8.48;100.00;101334.81;5092553;28;20080;-45
2022/09/17 03:36:58;;;;;;;19.20;3.10;;;;;;;8.45;100.00;101333.75;5092437;28;20024;-46
2022/09/17 03:39:23;;;;;;;19.23;2.97;;;;;;;8.39;100.00;101329.19;5092218;28;20020;-45
2022/09/17 03:41:49;;;;;;;17.10;2.88;;;;;;;8.42;100.00;101329.34;5093225;28;20042;-46
2022/09/17 03:44:14;;;;;;;10.88;2.80;;;;;;;8.36;100.00;101323.91;5092799;28;20085;-45
2022/09/17 03:46:40;;;;;;;17.05;2.70;;;;;;;8.30;100.00;101321.06;5092129;28;20059;-46
2022/09/17 03:49:05;;;;;;;13.30;2.30;;;;;;;8.28;100.00;101325.25;5092742;28;20024;-45
2022/09/17 03:51:31;;;;;;;16.40;2.78;;;;;;;8.25;100.00;101323.44;5092870;28;20024;-45
2022/09/17 03:53:56;;;;;;;15.43;3.08;;;;;;;8.27;100.00;101333.75;5092015;28;20017;-45
2022/09/17 03:56:21;;;;;;;18.75;3.22;;;;;;;8.31;100.00;101325.38;5092517;28;20032;-45
2022/09/17 03:58:46;;;;;;;20.17;3.33;;;;;;;8.28;100.00;101330.41;5093060;28;20024;-44
2022/09/17 04:01:12;;;;;;;14.05;2.78;;;;;;;8.26;100.00;101326.88;5091813;28;20038;-45
2022/09/17 04:03:37;;;;;;;13.90;2.45;;;;;;;8.27;100.00;101332.06;5092724;28;20032;-45
2022/09/17 04:06:03;;;;;;;13.68;2.50;;;;;;;8.26;100.00;101342.28;5092199;28;20016;-46
2022/09/17 04:08:28;;;;;;;12.30;2.53;;;;;;;8.15;100.00;101342.66;5092122;28;20403;-44
2022/09/17 04:10:53;;;;;;;17.90;3.22;;;;;;;8.15;100.00;101350.34;5092929;28;20052;-45
2022/09/17 04:13:19;;;;;;;14.27;2.55;;;;;;;8.10;100.00;101356.09;5092345;28;20032;-45
2022/09/17 04:15:45;;;;;;;15.55;2.78;;;;;;;8.06;100.00;101349.91;5092287;28;20078;-46
2022/09/17 04:18:11;;;;;;;14.65;2.75;;;;;;;8.05;100.00;101353.28;5092462;28;20038;-44
2022/09/17 04:20:37;;;;;;;17.02;2.97;;;;;;;8.06;100.00;101353.34;5092301;28;20080;-44
2022/09/17 04:23:02;;;;;;;18.90;3.00;;;;;;;8.02;100.00;101354.00;5091778;28;20039;-46
2022/09/17 04:25:27;;;;;;;30.15;3.40;;;;;;;8.02;100.00;101358.28;5092692;28;20047;-46
2022/09/17 04:27:52;;;;;;;13.57;2.70;;;;;;;7.98;100.00;101357.25;5092396;28;20039;-44
2022/09/17 04:30:18;;;;;;;18.80;2.50;;;;;;;8.01;100.00;101356.50;5091758;28;20064;-44
2022/09/17 04:32:44;;;;;;;17.83;3.30;;;;;;;7.99;100.00;101364.16;5092500;28;20046;-44
2022/09/17 04:35:10;;;;;;;15.90;2.85;;;;;;;8.06;100.00;101355.06;5092030;28;20028;-48
2022/09/17 04:37:36;;;;;;;16.02;2.60;;;;;;;8.10;100.00;101351.81;5091870;28;20046;-48
2022/09/17 04:40:02;;;;;;;14.85;2.70;;;;;;;8.17;100.00;101360.69;5092215;28;20394;-47
2022/09/17 04:42:27;;;;;;;15.93;2.85;;;;;;;8.19;100.00;101352.25;5091868;28;20046;-44
2022/09/17 04:44:52;;;;;;;15.43;2.35;;;;;;;8.22;100.00;101356.66;5092121;28;20166;-44
2022/09/17 04:47:17;;;;;;;18.90;2.63;;;;;;;8.23;100.00;101351.56;5095575;28;20035;-45
2022/09/17 04:49:43;;;;;;;16.92;2.92;;;;;;;8.24;100.00;101355.91;5095199;28;20758;-45
2022/09/17 04:52:08;;;;;;;14.10;2.92;;;;;;;8.25;100.00;101349.09;5095491;28;20070;-45
2022/09/17 04:54:33;;;;;;;12.30;2.88;;;;;;;8.27;100.00;101350.03;5096064;28;20020;-45
2022/09/17 04:56:59;;;;;;;16.55;2.60;;;;;;;8.23;100.00;101354.16;5095210;28;20024;-44
2022/09/17 04:59:25;;;;;;;16.13;2.78;;;;;;;8.22;100.00;101351.50;5095658;28;20028;-44
2022/09/17 05:01:50;;;;;;;17.65;2.78;;;;;;;8.19;100.00;101349.69;5095770;28;20042;-44
2022/09/17 05:04:15;;;;;;;18.17;3.50;;;;;;;8.20;100.00;101354.00;5094514;28;20028;-49
2022/09/17 05:06:40;;;;;;;22.65;3.13;;;;;;;8.17;100.00;101353.88;5095468;28;20043;-44
2022/09/17 05:09:06;;;;;;;18.33;3.22;;;;;;;8.18;100.00;101355.63;5094947;28;20052;-44
2022/09/17 05:11:32;;;;;;;15.40;2.80;;;;;;;8.08;100.00;101359.44;5094929;28;20024;-44
2022/09/17 05:13:57;;;;;;;19.75;2.95;;;;;;;8.09;100.00;101362.88;5095661;28;20478;-49
2022/09/17 05:16:22;;;;;;;15.73;2.72;;;;;;;8.14;100.00;101357.97;5094909;28;20020;-44
2022/09/17 05:18:50;;;;;;;16.38;2.95;;;;;;;8.10;100.00;101367.22;5094751;28;20024;-46
2022/09/17 05:21:15;;;;;;;23.83;3.80;;;;;;;8.04;100.00;101365.25;5095000;28;20035;-44
2022/09/17 05:23:40;;;;;;;17.73;3.47;;;;;;;8.04;100.00;101362.69;5094920;28;20050;-47
2022/09/17 05:26:05;;;;;;;22.40;3.08;;;;;;;8.05;100.00;101364.41;5093873;28;20044;-44
2022/09/17 05:28:31;;;;;;;15.02;3.10;;;;;;;8.04;100.00;101366.91;5102993;28;20024;-46
2022/09/17 05:31:00;;;;;;;16.45;2.95;;;;;;;8.00;100.00;101375.28;5115117;28;20016;-44
2022/09/17 05:33:25;;;;;;;17.83;3.40;;;;;;;8.03;100.00;101376.31;5102534;28;20067;-45
2022/09/17 05:35:50;;;;;;;16.63;3.13;;;;;;;8.01;100.00;101388.19;5110284;28;20059;-46
2022/09/17 05:38:17;;;;;;;23.38;3.92;;;;;;;7.99;100.00;101388.91;5114576;28;20066;-45
2022/09/17 05:40:43;;;;;;;21.95;3.65;;;;;;;8.00;100.00;101385.56;5114555;28;20024;-44
2022/09/17 05:43:08;;;;;;;15.13;3.13;;;;;;;8.00;100.00;101388.13;5114320;28;20072;-46
2022/09/17 05:45:35;;;;;;;14.35;2.95;;;;;;;7.98;100.00;101387.16;5114392;28;20402;-44
2022/09/17 05:48:01;;;;;;;24.73;3.85;;;;;;;7.99;100.00;101389.81;5114142;28;20382;-45
2022/09/17 05:50:28;;;;;;;18.58;3.55;;;;;;;8.01;100.00;101393.31;5115077;28;20019;-47
2022/09/17 05:52:54;;;;;;;16.57;3.77;;;;;;;8.01;100.00;101385.63;5114601;28;20039;-44
2022/09/17 05:55:21;;;;;;;16.92;3.25;;;;;;;8.04;100.00;101390.03;5114922;28;20273;-44
2022/09/17 05:57:50;;;;;;;20.85;3.17;;;;;;;8.14;100.00;101399.94;5113799;28;20027;-45
2022/09/17 06:00:16;;;;;;;21.50;3.60;;;;;;;8.23;100.00;101402.94;5113945;28;20072;-47
2022/09/17 06:02:41;;;;;;;18.20;2.88;;;;;;;8.32;100.00;101410.22;5114861;28;20416;-44
2022/09/17 06:05:07;;;;;;;16.33;3.20;;;;;;;8.38;100.00;101418.22;5114431;28;20463;-48
2022/09/17 06:07:37;;;;;;;16.17;3.25;;;;;;;8.41;100.00;101420.03;5114342;28;20024;-46
2022/09/17 06:10:04;;;;;;;12.88;2.70;;;;;;;8.47;100.00;101422.94;5114482;28;20477;-44
2022/09/17 06:12:29;;;;;;;18.08;3.13;;;;;;;8.51;100.00;101416.28;5114614;28;20027;-46
2022/09/17 06:14:55;;;;;;;21.25;3.35;;;;;;;8.55;100.00;101413.03;5114169;28;20036;-44
2022/09/17 06:17:20;;;;;;;19.00;3.03;;;;;;;8.59;100.00;101402.09;5106910;28;20024;-46
2022/09/17 06:19:45;;;;;;;20.38;3.13;;;;;;;8.63;100.00;101398.84;5107817;28;20027;-43
2022/09/17 06:22:10;;;;;;;20.95;3.17;;;;;;;8.62;100.00;101409.91;5094959;28;20027;-43
2022/09/17 06:24:36;;;;;;;13.35;2.70;;;;;;;8.66;100.00;101408.38;5094131;28;20391;-47
2022/09/17 06:27:01;;;;;;;14.50;2.72;;;;;;;8.67;100.00;101420.44;5091972;28;20055;-48
2022/09/17 06:29:26;;;;;;;11.25;2.72;;;;;;;8.61;100.00;101417.56;5091680;28;20048;-48
2022/09/17 06:31:52;;;;;;;11.68;2.67;;;;;;;8.59;100.00;101424.34;5093933;28;20073;-48
2022/09/17 06:34:18;;;;;;;12.50;2.50;;;;;;;8.60;100.00;101421.84;5093149;28;20439;-47
2022/09/17 06:36:43;;;;;;;12.50;2.80;;;;;;;8.64;100.00;101428.00;5093756;28;20459;-48
2022/09/17 06:39:10;;;;;;;11.75;3.10;;;;;;;8.68;100.00;101419.63;5093836;28;20020;-47
2022/09/17 06:41:36;;;;;;;14.18;3.83;;;;;;;8.70;100.00;101415.41;5093599;28;20356;-46
2022/09/17 06:44:01;;;;;;;14.43;3.53;;;;;;;8.67;100.00;101417.84;5093131;28;20065;-46
2022/09/17 06:46:26;;;;;;;15.00;2.80;;;;;;;8.70;100.00;101410.28;5093396;28;20094;-46
2022/09/17 06:48:52;;;;;;;13.77;3.00;;;;;;;8.67;100.00;101415.28;5093387;28;20406;-46
2022/09/17 06:51:17;;;;;;;13.20;2.50;;;;;;;8.71;100.00;101415.50;5093044;28;20027;-46
2022/09/17 06:53:42;;;;;;;13.50;2.40;;;;;;;8.74;100.00;101419.91;5101224;28;21703;-46
2022/09/17 06:56:08;;;;;;;10.38;2.15;;;;;;;8.69;100.00;101416.25;5107150;28;20032;-44
2022/09/17 06:58:40;;;;;;;16.08;2.72;;;;;;;8.73;100.00;101413.00;5105763;28;20119;-44
2022/09/17 07:01:06;;;;;;;17.27;2.80;;;;;;;8.81;100.00;101415.94;5111424;28;20023;-45
2022/09/17 07:03:32;;;;;;;11.30;2.72;;;;;;;8.83;100.00;101415.19;5102959;28;20130;-44
2022/09/17 07:05:57;;;;;;;14.65;3.00;;;;;;;8.86;100.00;101420.47;5109264;28;20409;-45
2022/09/17 07:08:23;;;;;;;13.85;3.53;;;;;;;8.99;100.00;101421.03;5107721;28;20058;-46
2022/09/17 07:10:48;;;;;;;13.63;4.60;;;;;;;9.11;100.00;101424.13;5101719;28;20355;-44
2022/09/17 07:13:13;;;;;;;15.38;5.65;;;;;;;9.17;100.00;101420.97;5112700;28;20439;-44
2022/09/17 07:15:39;;;;;;;13.27;4.40;;;;;;;9.23;100.00;101426.38;5112860;28;20370;-48
2022/09/17 07:18:10;;;;;;;12.63;4.30;;;;;;;9.48;100.00;101419.75;5110342;28;20421;-44
2022/09/17 07:20:35;;;;;;;12.68;3.10;;;;;;;9.52;100.00;101425.06;5112650;28;20474;-44
2022/09/17 07:23:01;;;;;;;8.55;2.33;;;;;;;9.59;100.00;101427.91;5108286;28;20048;-45
2022/09/17 07:25:26;;;;;;;8.88;2.17;;;;;;;9.70;100.00;101426.69;5100652;28;20497;-44
2022/09/17 07:27:52;;;;;;;7.95;1.65;;;;;;;9.77;99.07;101431.25;5103902;28;20027;-44
2022/09/17 07:30:17;;;;;;;9.00;2.20;;;;;;;9.85;99.23;101429.91;5101828;28;20475;-45
2022/09/17 07:32:43;;;;;;;12.00;2.10;;;;;;;9.97;98.59;101431.25;5106762;28;20032;-48
2022/09/17 07:35:08;;;;;;;9.10;1.92;;;;;;;10.27;97.63;101441.03;5112357;28;20062;-44
2022/09/17 07:37:34;;;;;;;8.20;2.20;;;;;;;10.29;95.62;101434.22;5103597;28;20055;-44
2022/09/17 07:39:59;;;;;;;4.38;1.33;;;;;;;10.41;93.79;101428.75;5107846;28;20099;-44
2022/09/17 07:42:26;;;;;;;13.48;2.15;;;;;;;10.57;94.08;101432.78;5112515;28;20032;-44
2022/09/17 07:44:51;;;;;;;10.03;1.90;;;;;;;10.82;94.90;101434.59;5099406;28;20117;-44
2022/09/17 07:47:16;;;;;;;7.63;2.25;;;;;;;10.99;93.95;101430.09;5112399;28;20020;-46
2022/09/17 07:49:42;;;;;;;9.68;1.95;;;;;;;10.93;90.07;101428.16;5099613;28;20073;-47
2022/09/17 07:52:07;;;;;;;13.20;2.50;;;;;;;11.18;90.83;101424.78;5090958;28;20047;-46
2022/09/17 07:54:33;;;;;;;8.90;1.90;;;;;;;11.14;91.48;101430.66;5104988;28;20020;-44
2022/09/17 07:56:59;;;;;;;7.20;1.48;;;;;;;11.27;90.75;101425.94;5106248;28;20024;-44
2022/09/17 07:59:24;;;;;;;11.45;1.75;;;;;;;11.29;88.78;101429.47;5099998;28;20032;-48
2022/09/17 08:01:49;;;;;;;7.78;1.95;;;;;;;11.41;87.07;101427.28;5111801;28;20027;-44
2022/09/17 08:04:15;;;;;;;10.48;1.60;;;;;;;11.43;87.33;101422.22;5110994;28;20024;-45
2022/09/17 08:06:40;;;;;;;7.03;1.60;;;;;;;11.67;88.28;101424.75;5108357;28;20146;-44
2022/09/17 08:09:06;;;;;;;6.55;1.70;;;;;;;11.73;88.45;101424.97;5112242;28;20079;-47
2022/09/17 08:11:31;;;;;;;7.00;1.60;;;;;;;11.83;85.12;101429.63;5104354;28;20373;-46
2022/09/17 08:13:57;;;;;;;10.38;1.60;;;;;;;11.88;85.61;101434.06;5099073;28;20084;-45
2022/09/17 08:16:23;;;;;;;8.68;1.50;;;;;;;11.95;85.64;101426.59;5098359;28;20035;-45
2022/09/17 08:18:53;;;;;;;8.80;1.45;;;;;;;11.81;85.03;101433.88;5103784;28;20027;-44
2022/09/17 08:21:19;;;;;;;12.88;1.73;;;;;;;11.69;83.84;101430.84;5101729;28;20024;-47
2022/09/17 08:23:44;;;;;;;7.63;1.48;;;;;;;11.64;85.60;101435.84;5103768;28;20475;-44
2022/09/17 08:26:15;;;;;;;11.20;1.90;;;;;;;11.86;87.94;101432.31;5116139;28;20031;-45
2022/09/17 08:28:49;;;;;;;7.32;1.65;;;;;;;11.88;84.44;101440.13;5115875;28;20016;-47
2022/09/17 08:31:17;;;;;;;9.43;1.85;;;;;;;11.92;83.40;101430.78;5116479;27;20474;-45
2022/09/17 08:33:43;;;;;;;11.77;2.10;;;;;;;12.12;84.38;101434.03;5116182;28;20054;-46
2022/09/17 08:36:10;;;;;;;12.10;2.13;;;;;;;12.17;84.00;101428.19;5115648;28;20047;-45
2022/09/17 08:38:36;;;;;;;10.07;1.75;;;;;;;12.26;83.52;101426.72;5116638;28;20020;-45
2022/09/17 08:41:41;;;;;;;11.68;2.50;;;;;;;12.43;85.32;101430.69;5116145;28;20379;-46
2022/09/17 08:44:24;;;;;;;8.48;1.85;;;;;;;12.57;85.24;101435.44;5116385;28;20093;-45
2022/09/17 08:46:56;;;;;;;9.45;1.70;;;;;;;12.63;82.49;101433.06;5116119;28;20046;-49
2022/09/17 08:49:46;;;;;;;10.18;2.00;;;;;;;12.78;83.56;101441.28;5115624;28;20031;-48
2022/09/17 08:52:29;;;;;;;9.07;1.80;;;;;;;12.89;82.27;101435.56;5113753;28;20024;-47
2022/09/17 08:55:30;;;;;;;8.10;1.80;;;;;;;13.10;81.15;101432.69;5095798;28;20032;-48
2022/09/17 08:58:34;;;;;;;10.50;2.05;;;;;;;13.69;82.20;101440.38;5095088;28;20035;-48
2022/09/17 09:01:27;;;;;;;9.73;2.08;;;;;;;13.75;78.10;101435.38;5095610;28;20039;-49
2022/09/17 09:04:18;;;;;;;12.10;2.03;;;;;;;13.63;77.98;101440.22;5094654;28;20398;-47
2022/09/17 09:06:48;;;;;;;9.73;1.33;;;;;;;13.33;77.59;101443.69;5095886;28;20032;-48
2022/09/17 09:09:15;;;;;;;10.55;1.67;;;;;;;13.01;79.72;101447.13;5095223;28;20028;-49
2022/09/17 09:11:42;;;;;;;12.85;1.75;;;;;;;12.65;80.78;101449.47;5097877;28;20036;-50
2022/09/17 09:14:53;;;;;;;8.93;1.67;;;;;;;12.48;81.96;101449.81;5095308;28;20379;-47
2022/09/17 09:17:27;;;;;;;12.88;1.73;;;;;;;11.89;82.59;101456.47;5052224;28;20031;-47
2022/09/17 09:19:53;;;;;;;7.32;1.42;;;;;;;11.99;88.48;101453.41;5052788;28;20041;-46
2022/09/17 09:22:33;;;;;;;7.00;1.85;;;;;;;12.33;88.41;101454.50;5076229;28;20042;-50
2022/09/17 09:25:17;;;;;;;7.68;1.30;;;;;;;12.58;80.45;101448.41;5094664;28;20536;-47
2022/09/17 09:27:50;;;;;;;5.05;1.25;;;;;;;13.25;81.75;101451.25;5095192;28;20410;-50
2022/09/17 09:30:22;;;;;;;3.78;0.90;;;;;;;13.40;76.65;101453.44;5094833;28;20020;-47
2022/09/17 09:33:14;;;;;;;8.38;1.40;;;;;;;13.50;76.14;101462.31;5094485;28;20043;-46
2022/09/17 09:35:42;;;;;;;4.72;0.80;;;;;;;13.76;75.23;101459.56;5095120;28;20052;-47
2022/09/17 09:38:07;;;;;;;5.03;1.20;;;;;;;13.79;72.64;101454.47;5094424;28;20099;-45
2022/09/17 09:40:49;;;;;;;8.93;1.23;;;;;;;13.60;72.73;101460.88;5095164;28;20162;-47
2022/09/17 09:43:36;;;;;;;4.78;0.90;;;;;;;13.78;73.40;101458.75;5098253;28;20067;-50
2022/09/17 09:46:16;;;;;;;7.97;1.20;;;;;;;14.27;73.96;101459.13;5093907;28;20097;-49
2022/09/17 09:48:53;;;;;;;6.70;1.25;;;;;;;15.19;71.61;101463.75;5095039;28;20012;-47
2022/09/17 09:51:53;;;;;;;7.65;1.15;;;;;;;15.76;70.21;101451.84;5094350;28;20032;-48
2022/09/17 09:54:33;;;;;;;5.88;1.20;;;;;;;16.35;65.95;101453.75;5094278;28;20352;-47
2022/09/17 09:57:07;;;;;;;11.02;1.42;;;;;;;16.37;60.18;101449.44;5094674;28;20024;-49
2022/09/17 09:59:35;;;;;;;6.30;1.00;;;;;;;16.26;62.76;101449.25;5096750;28;20032;-46
2022/09/17 10:02:00;;;;;;;8.00;1.48;;;;;;;16.13;63.80;101453.38;5094342;28;20055;-46
2022/09/17 10:04:27;;;;;;;7.35;1.10;;;;;;;15.66;61.41;101458.63;5093853;28;20056;-49
2022/09/17 10:07:01;;;;;;;7.28;1.10;;;;;;;15.54;65.75;101455.78;5093988;28;20091;-47
2022/09/17 10:09:28;;;;;;;7.28;1.10;;;;;;;15.50;62.69;101451.38;5093882;28;20507;-48
2022/09/17 10:12:03;;;;;;;6.93;1.15;;;;;;;15.52;65.68;101467.84;5094270;28;20091;-47
2022/09/17 10:14:31;;;;;;;8.02;1.50;;;;;;;16.00;64.70;101464.44;5093769;28;20020;-47
2022/09/17 10:17:13;;;;;;;7.72;1.20;;;;;;;16.04;66.16;101461.03;5096846;28;20020;-47
2022/09/17 10:19:38;;;;;;;10.38;1.33;;;;;;;16.67;59.52;101450.75;5094244;28;20034;-50
2022/09/17 10:22:39;;;;;;;8.55;1.38;;;;;;;17.10;60.73;101461.75;5093225;28;20099;-48
2022/09/17 10:25:17;;;;;;;10.25;1.23;;;;;;;16.90;57.37;101468.38;5085581;28;20373;-48
2022/09/17 10:27:44;;;;;;;5.25;1.00;;;;;;;15.94;60.35;101459.13;5093260;28;20375;-47
2022/09/17 10:30:10;;;;;;;7.07;1.17;;;;;;;15.36;65.75;101464.97;5093961;28;20028;-46
2022/09/17 10:32:35;;;;;;;5.50;0.90;;;;;;;15.09;62.95;101463.59;5093913;28;20447;-48
2022/09/17 10:35:06;;;;;;;8.48;1.27;;;;;;;15.35;64.02;101450.25;5093515;28;20028;-47
2022/09/17 10:37:34;;;;;;;8.98;1.30;;;;;;;15.97;60.93;101451.38;5093972;28;20031;-50
2022/09/17 10:40:00;;;;;;;9.23;1.17;;;;;;;15.97;60.44;101443.56;5093554;28;20028;-46
2022/09/17 10:42:25;;;;;;;8.82;1.35;;;;;;;16.78;58.87;101441.34;5092917;28;20024;-46
2022/09/17 10:44:52;;;;;;;4.63;1.10;;;;;;;16.94;59.62;101439.00;5093168;28;20027;-49
2022/09/17 10:47:36;;;;;;;7.53;1.27;;;;;;;17.25;60.18;101440.22;5093486;28;20028;-50
2022/09/17 10:50:23;;;;;;;7.60;2.53;;;;;;;17.80;55.21;101444.25;5093164;28;20166;-48
2022/09/17 10:52:54;;;;;;;13.23;6.15;;;;;;;18.59;56.99;101440.53;5085978;28;20089;-45
2022/09/17 10:55:38;;;;;;;5.20;1.67;;;;;;;19.40;53.52;101439.16;5093063;28;20028;-47
2022/09/17 10:58:06;;;;;;;8.38;1.60;;;;;;;20.54;49.93;101443.56;5093342;28;20043;-49
2022/09/17 11:00:52;;;;;;;5.15;1.00;;;;;;;20.25;51.32;101432.28;5093211;28;20418;-48
2022/09/17 11:03:39;;;;;;;4.43;1.17;;;;;;;20.15;50.67;101434.03;5092878;28;20032;-48
2022/09/17 11:06:17;;;;;;;4.72;1.25;;;;;;;19.42;50.54;101437.41;5093222;28;20273;-48
2022/09/17 11:09:17;;;;;;;7.80;1.35;;;;;;;19.15;51.90;101438.22;5093201;28;20034;-46
2022/09/17 11:12:01;;;;;;;6.10;1.05;;;;;;;18.96;54.18;101439.03;5093589;28;20060;-49
2022/09/17 11:14:45;;;;;;;8.05;1.60;;;;;;;17.92;50.83;101438.25;5093054;28;20028;-46
2022/09/17 11:17:23;;;;;;;3.40;0.90;;;;;;;17.87;51.81;101437.34;5092554;28;20170;-50
2022/09/17 11:20:16;;;;;;;5.05;1.20;;;;;;;18.41;52.48;101430.88;5093566;28;20141;-49
2022/09/17 11:22:56;;;;;;;5.95;1.08;;;;;;;18.71;51.89;101431.91;5093116;28;20035;-47
2022/09/17 11:25:43;;;;;;;7.13;1.08;;;;;;;18.82;51.14;101425.84;5092270;28;20028;-46
2022/09/17 11:28:09;;;;;;;;;;;;;;;19.58;49.69;101427.00;5093286;28;20054;-48
2022/09/17 11:30:46;;;;;;;6.70;1.20;;;;;;;19.51;47.92;101418.28;5092708;28;19912;-50
2022/09/17 11:33:12;;;;;;;;;;;;;;;20.08;46.98;101427.94;5093347;28;20115;-51
2022/09/17 11:35:44;;;;;;;6.38;1.30;;;;;;;19.54;46.41;101430.47;5092798;28;19995;-49
2022/09/17 11:38:19;;;;;;;5.03;1.13;;;;;;;19.01;47.12;101421.63;5092336;28;20035;-49
2022/09/17 11:41:32;;;;;;;7.47;1.40;;;;;;;19.58;49.69;101427.00;5093261;28;20024;-49